sensor_id;sensor_type;location;lat;lon;timestamp;P1;durP1;ratioP1;P2;durP2;ratioP2
24897;SDS011;12957;49.434;8.684;2024-03-02T00:01:06;13.15;;;7.95;;
24897;SDS011;12957;49.434;8.684;2024-03-02T00:03:32;25.15;;;11.32;;
24897;SDS011;12957;49.434;8.684;2024-03-02T00:05:58;17.85;;;9.80;;
24897;SDS011;12957;49.434;8.684;2024-03-02T00:08:24;10.90;;;6.85;;
24897;SDS011;12957;49.434;8.684;2024-03-02T00:10:50;14.25;;;9.15;;
24897;SDS011;12957;49.434;8.684;2024-03-02T00:13:16;13.52;;;7.88;;
24897;SDS011;12957;49.434;8.684;2024-03-02T00:15:46;19.80;;;10.57;;
24897;SDS011;12957;49.434;8.684;2024-03-02T00:18:13;16.65;;;10.43;;
24897;SDS011;12957;49.434;8.684;2024-03-02T00:20:40;17.27;;;10.50;;
24897;SDS011;12957;49.434;8.684;2024-03-02T00:23:06;14.93;;;8.93;;
24897;SDS011;12957;49.434;8.684;2024-03-02T00:25:42;13.23;;;7.80;;
24897;SDS011;12957;49.434;8.684;2024-03-02T00:28:16;16.27;;;9.57;;
24897;SDS011;12957;49.434;8.684;2024-03-02T00:33:33;14.63;;;9.50;;
24897;SDS011;12957;49.434;8.684;2024-03-02T00:36:04;17.75;;;10.65;;
24897;SDS011;12957;49.434;8.684;2024-03-02T00:38:30;16.55;;;9.50;;
24897;SDS011;12957;49.434;8.684;2024-03-02T00:40:57;16.42;;;10.00;;
24897;SDS011;12957;49.434;8.684;2024-03-02T00:45:49;16.00;;;8.98;;
24897;SDS011;12957;49.434;8.684;2024-03-02T00:48:15;17.30;;;8.85;;
24897;SDS011;12957;49.434;8.684;2024-03-02T00:50:41;17.02;;;10.75;;
24897;SDS011;12957;49.434;8.684;2024-03-02T00:53:09;16.98;;;9.75;;
24897;SDS011;12957;49.434;8.684;2024-03-02T00:55:39;19.70;;;10.38;;
24897;SDS011;12957;49.434;8.684;2024-03-02T11:16:45;2.28;;;2.08;;
24897;SDS011;12957;49.434;8.684;2024-03-02T11:19:12;2.00;;;1.90;;
24897;SDS011;12957;49.434;8.684;2024-03-02T11:21:38;2.30;;;2.10;;
24897;SDS011;12957;49.434;8.684;2024-03-02T11:26:53;2.13;;;1.92;;
24897;SDS011;12957;49.434;8.684;2024-03-02T11:32:01;6.75;;;2.20;;
24897;SDS011;12957;49.434;8.684;2024-03-02T11:34:30;4.50;;;2.30;;
24897;SDS011;12957;49.434;8.684;2024-03-02T11:36:57;2.72;;;2.20;;
24897;SDS011;12957;49.434;8.684;2024-03-02T11:39:24;2.13;;;2.03;;
24897;SDS011;12957;49.434;8.684;2024-03-02T11:41:53;3.78;;;2.22;;
24897;SDS011;12957;49.434;8.684;2024-03-02T11:44:19;3.83;;;2.30;;
24897;SDS011;12957;49.434;8.684;2024-03-02T11:46:45;10.93;;;6.78;;
24897;SDS011;12957;49.434;8.684;2024-03-02T11:49:14;7.10;;;3.17;;
24897;SDS011;12957;49.434;8.684;2024-03-02T11:51:40;2.38;;;2.20;;
24897;SDS011;12957;49.434;8.684;2024-03-02T11:54:21;3.45;;;2.28;;
24897;SDS011;12957;49.434;8.684;2024-03-02T11:56:46;2.67;;;1.83;;
24897;SDS011;12957;49.434;8.684;2024-03-02T11:59:12;2.30;;;2.10;;
24897;SDS011;12957;49.434;8.684;2024-03-02T12:01:38;2.67;;;2.20;;
24897;SDS011;12957;49.434;8.684;2024-03-02T12:04:04;2.55;;;2.00;;
24897;SDS011;12957;49.434;8.684;2024-03-02T12:06:30;2.30;;;1.85;;
24897;SDS011;12957;49.434;8.684;2024-03-02T12:08:56;2.03;;;1.77;;
24897;SDS011;12957;49.434;8.684;2024-03-02T12:11:21;2.22;;;2.03;;
24897;SDS011;12957;49.434;8.684;2024-03-02T12:13:53;2.00;;;1.80;;
24897;SDS011;12957;49.434;8.684;2024-03-02T12:16:22;1.70;;;1.60;;
24897;SDS011;12957;49.434;8.684;2024-03-02T12:18:49;1.50;;;1.40;;
24897;SDS011;12957;49.434;8.684;2024-03-02T12:21:14;1.23;;;1.23;;
24897;SDS011;12957;49.434;8.684;2024-03-02T12:23:40;1.70;;;1.48;;
24897;SDS011;12957;49.434;8.684;2024-03-02T12:26:06;1.77;;;1.67;;
24897;SDS011;12957;49.434;8.684;2024-03-02T12:28:32;1.70;;;1.60;;
24897;SDS011;12957;49.434;8.684;2024-03-02T12:30:58;1.92;;;1.52;;
24897;SDS011;12957;49.434;8.684;2024-03-02T12:33:24;2.15;;;1.92;;
24897;SDS011;12957;49.434;8.684;2024-03-02T12:35:49;2.25;;;2.05;;
24897;SDS011;12957;49.434;8.684;2024-03-02T12:38:15;3.08;;;2.00;;
24897;SDS011;12957;49.434;8.684;2024-03-02T12:40:40;1.90;;;1.80;;
24897;SDS011;12957;49.434;8.684;2024-03-02T12:43:06;2.10;;;1.90;;
24897;SDS011;12957;49.434;8.684;2024-03-02T12:45:32;1.67;;;1.58;;
24897;SDS011;12957;49.434;8.684;2024-03-02T12:47:59;1.90;;;1.80;;
24897;SDS011;12957;49.434;8.684;2024-03-02T12:50:25;1.52;;;1.45;;
24897;SDS011;12957;49.434;8.684;2024-03-02T12:52:54;2.33;;;1.60;;
24897;SDS011;12957;49.434;8.684;2024-03-02T12:55:20;1.83;;;1.73;;
24897;SDS011;12957;49.434;8.684;2024-03-02T12:57:47;1.70;;;1.60;;
24897;SDS011;12957;49.434;8.684;2024-03-02T13:00:12;1.70;;;1.60;;
24897;SDS011;12957;49.434;8.684;2024-03-02T13:02:41;3.35;;;1.67;;
24897;SDS011;12957;49.434;8.684;2024-03-02T13:05:07;1.80;;;1.70;;
24897;SDS011;12957;49.434;8.684;2024-03-02T13:07:36;6.57;;;1.88;;
24897;SDS011;12957;49.434;8.684;2024-03-02T13:10:02;1.65;;;1.55;;
24897;SDS011;12957;49.434;8.684;2024-03-02T13:12:29;1.80;;;1.70;;
24897;SDS011;12957;49.434;8.684;2024-03-02T13:14:55;4.78;;;1.65;;
24897;SDS011;12957;49.434;8.684;2024-03-02T13:17:22;1.67;;;1.58;;
24897;SDS011;12957;49.434;8.684;2024-03-02T13:19:52;2.33;;;1.60;;
24897;SDS011;12957;49.434;8.684;2024-03-02T13:22:20;1.90;;;1.80;;
24897;SDS011;12957;49.434;8.684;2024-03-02T13:24:46;1.95;;;1.85;;
24897;SDS011;12957;49.434;8.684;2024-03-02T13:27:12;2.00;;;1.85;;
24897;SDS011;12957;49.434;8.684;2024-03-02T13:29:38;2.90;;;2.20;;
24897;SDS011;12957;49.434;8.684;2024-03-02T13:32:04;1.77;;;1.70;;
24897;SDS011;12957;49.434;8.684;2024-03-02T13:34:29;2.35;;;1.63;;
24897;SDS011;12957;49.434;8.684;2024-03-02T13:36:55;1.58;;;1.48;;
24897;SDS011;12957;49.434;8.684;2024-03-02T13:39:20;2.10;;;1.90;;
24897;SDS011;12957;49.434;8.684;2024-03-02T13:41:46;2.38;;;2.08;;
24897;SDS011;12957;49.434;8.684;2024-03-02T13:44:18;3.05;;;1.90;;
24897;SDS011;12957;49.434;8.684;2024-03-02T13:46:46;1.80;;;1.70;;
24897;SDS011;12957;49.434;8.684;2024-03-02T13:49:13;2.55;;;2.35;;
24897;SDS011;12957;49.434;8.684;2024-03-02T13:51:39;1.90;;;1.80;;
24897;SDS011;12957;49.434;8.684;2024-03-02T13:54:04;3.42;;;1.70;;
24897;SDS011;12957;49.434;8.684;2024-03-02T13:56:30;1.67;;;1.58;;
24897;SDS011;12957;49.434;8.684;2024-03-02T13:58:57;1.40;;;1.30;;
24897;SDS011;12957;49.434;8.684;2024-03-02T14:01:23;2.35;;;1.55;;
24897;SDS011;12957;49.434;8.684;2024-03-02T14:03:48;1.65;;;1.40;;
24897;SDS011;12957;49.434;8.684;2024-03-02T14:06:14;1.27;;;1.17;;
24897;SDS011;12957;49.434;8.684;2024-03-02T14:08:40;1.30;;;1.20;;
24897;SDS011;12957;49.434;8.684;2024-03-02T14:11:05;1.15;;;1.15;;
24897;SDS011;12957;49.434;8.684;2024-03-02T14:13:31;1.30;;;1.30;;
24897;SDS011;12957;49.434;8.684;2024-03-02T14:15:56;1.52;;;1.40;;
24897;SDS011;12957;49.434;8.684;2024-03-02T14:18:23;1.25;;;1.20;;
24897;SDS011;12957;49.434;8.684;2024-03-02T14:20:48;1.20;;;1.10;;
24897;SDS011;12957;49.434;8.684;2024-03-02T14:23:17;1.10;;;1.10;;
24897;SDS011;12957;49.434;8.684;2024-03-02T14:25:44;1.00;;;1.00;;
24897;SDS011;12957;49.434;8.684;2024-03-02T14:28:10;1.00;;;1.00;;
24897;SDS011;12957;49.434;8.684;2024-03-02T14:30:35;1.00;;;1.00;;
24897;SDS011;12957;49.434;8.684;2024-03-02T14:33:02;2.40;;;1.17;;
24897;SDS011;12957;49.434;8.684;2024-03-02T14:35:27;0.95;;;0.95;;
24897;SDS011;12957;49.434;8.684;2024-03-02T14:37:53;0.93;;;0.93;;
24897;SDS011;12957;49.434;8.684;2024-03-02T14:40:19;5.90;;;1.20;;
24897;SDS011;12957;49.434;8.684;2024-03-02T14:42:46;1.30;;;1.30;;
24897;SDS011;12957;49.434;8.684;2024-03-02T14:45:13;1.15;;;1.10;;
24897;SDS011;12957;49.434;8.684;2024-03-02T14:47:39;1.15;;;1.02;;
24897;SDS011;12957;49.434;8.684;2024-03-02T14:50:05;1.42;;;1.42;;
24897;SDS011;12957;49.434;8.684;2024-03-02T14:52:35;1.58;;;1.35;;
24897;SDS011;12957;49.434;8.684;2024-03-02T14:55:00;1.38;;;1.38;;
24897;SDS011;12957;49.434;8.684;2024-03-02T14:57:27;1.30;;;1.20;;
24897;SDS011;12957;49.434;8.684;2024-03-02T14:59:53;1.20;;;1.15;;
24897;SDS011;12957;49.434;8.684;2024-03-02T15:02:19;4.05;;;1.42;;
24897;SDS011;12957;49.434;8.684;2024-03-02T15:04:45;1.50;;;1.40;;
24897;SDS011;12957;49.434;8.684;2024-03-02T15:07:13;1.50;;;1.40;;
24897;SDS011;12957;49.434;8.684;2024-03-02T15:09:38;1.40;;;1.40;;
24897;SDS011;12957;49.434;8.684;2024-03-02T15:12:04;1.42;;;1.30;;
24897;SDS011;12957;49.434;8.684;2024-03-02T15:14:31;1.40;;;1.30;;
24897;SDS011;12957;49.434;8.684;2024-03-02T15:16:56;1.02;;;1.02;;
24897;SDS011;12957;49.434;8.684;2024-03-02T15:19:25;1.30;;;1.20;;
24897;SDS011;12957;49.434;8.684;2024-03-02T15:21:50;2.90;;;1.20;;
24897;SDS011;12957;49.434;8.684;2024-03-02T15:24:16;1.52;;;1.42;;
24897;SDS011;12957;49.434;8.684;2024-03-02T15:26:42;1.48;;;1.35;;
24897;SDS011;12957;49.434;8.684;2024-03-02T15:29:08;1.27;;;1.27;;
24897;SDS011;12957;49.434;8.684;2024-03-02T15:31:34;1.20;;;1.05;;
24897;SDS011;12957;49.434;8.684;2024-03-02T15:34:00;1.20;;;1.20;;
24897;SDS011;12957;49.434;8.684;2024-03-02T15:36:25;1.30;;;1.20;;
24897;SDS011;12957;49.434;8.684;2024-03-02T15:38:50;1.35;;;1.30;;
24897;SDS011;12957;49.434;8.684;2024-03-02T15:41:16;1.27;;;1.27;;
24897;SDS011;12957;49.434;8.684;2024-03-02T15:43:41;1.20;;;1.20;;
24897;SDS011;12957;49.434;8.684;2024-03-02T15:46:07;1.10;;;1.10;;
24897;SDS011;12957;49.434;8.684;2024-03-02T15:48:33;1.17;;;1.00;;
24897;SDS011;12957;49.434;8.684;2024-03-02T15:50:59;3.20;;;1.20;;
24897;SDS011;12957;49.434;8.684;2024-03-02T15:53:24;1.50;;;1.40;;
24897;SDS011;12957;49.434;8.684;2024-03-02T15:55:50;1.73;;;1.63;;
24897;SDS011;12957;49.434;8.684;2024-03-02T15:58:16;1.95;;;1.63;;
24897;SDS011;12957;49.434;8.684;2024-03-02T16:00:42;1.63;;;1.50;;
24897;SDS011;12957;49.434;8.684;2024-03-02T16:03:07;4.05;;;1.20;;
24897;SDS011;12957;49.434;8.684;2024-03-02T16:05:33;1.70;;;1.25;;
24897;SDS011;12957;49.434;8.684;2024-03-02T16:07:58;1.30;;;1.20;;
24897;SDS011;12957;49.434;8.684;2024-03-02T16:10:24;1.55;;;1.35;;
24897;SDS011;12957;49.434;8.684;2024-03-02T16:12:50;1.63;;;1.52;;
24897;SDS011;12957;49.434;8.684;2024-03-02T16:15:16;1.40;;;1.30;;
24897;SDS011;12957;49.434;8.684;2024-03-02T16:17:45;3.58;;;1.70;;
24897;SDS011;12957;49.434;8.684;2024-03-02T16:20:11;1.70;;;1.60;;
24897;SDS011;12957;49.434;8.684;2024-03-02T16:22:37;3.15;;;1.63;;
24897;SDS011;12957;49.434;8.684;2024-03-02T16:25:02;1.42;;;1.30;;
24897;SDS011;12957;49.434;8.684;2024-03-02T16:27:29;1.38;;;1.20;;
24897;SDS011;12957;49.434;8.684;2024-03-02T16:29:55;2.03;;;1.33;;
24897;SDS011;12957;49.434;8.684;2024-03-02T16:32:23;6.68;;;1.88;;
24897;SDS011;12957;49.434;8.684;2024-03-02T16:34:48;1.73;;;1.58;;
24897;SDS011;12957;49.434;8.684;2024-03-02T16:37:14;1.77;;;1.20;;
24897;SDS011;12957;49.434;8.684;2024-03-02T16:39:40;1.30;;;1.30;;
24897;SDS011;12957;49.434;8.684;2024-03-02T16:42:06;1.88;;;1.77;;
24897;SDS011;12957;49.434;8.684;2024-03-02T16:44:31;3.17;;;1.42;;
24897;SDS011;12957;49.434;8.684;2024-03-02T16:46:57;2.47;;;1.10;;
24897;SDS011;12957;49.434;8.684;2024-03-02T16:49:23;1.98;;;1.30;;
24897;SDS011;12957;49.434;8.684;2024-03-02T16:51:48;1.13;;;1.13;;
24897;SDS011;12957;49.434;8.684;2024-03-02T16:54:14;1.50;;;1.40;;
24897;SDS011;12957;49.434;8.684;2024-03-02T16:56:40;1.30;;;1.30;;
24897;SDS011;12957;49.434;8.684;2024-03-02T16:59:05;2.03;;;1.92;;
24897;SDS011;12957;49.434;8.684;2024-03-02T17:01:33;1.55;;;1.42;;
24897;SDS011;12957;49.434;8.684;2024-03-02T17:04:02;2.97;;;1.50;;
24897;SDS011;12957;49.434;8.684;2024-03-02T17:09:29;1.35;;;1.17;;
24897;SDS011;12957;49.434;8.684;2024-03-02T17:12:10;4.53;;;1.50;;
24897;SDS011;12957;49.434;8.684;2024-03-02T17:14:36;1.38;;;1.17;;
24897;SDS011;12957;49.434;8.684;2024-03-02T17:17:02;1.33;;;1.17;;
24897;SDS011;12957;49.434;8.684;2024-03-02T17:19:27;1.58;;;1.10;;
24897;SDS011;12957;49.434;8.684;2024-03-02T17:21:53;1.52;;;1.25;;
24897;SDS011;12957;49.434;8.684;2024-03-02T17:24:19;2.22;;;2.05;;
24897;SDS011;12957;49.434;8.684;2024-03-02T17:26:44;1.15;;;1.15;;
24897;SDS011;12957;49.434;8.684;2024-03-02T17:29:10;1.23;;;1.23;;
24897;SDS011;12957;49.434;8.684;2024-03-02T17:31:35;2.95;;;1.20;;
24897;SDS011;12957;49.434;8.684;2024-03-02T17:34:01;3.15;;;1.60;;
24897;SDS011;12957;49.434;8.684;2024-03-02T17:36:26;8.05;;;1.92;;
24897;SDS011;12957;49.434;8.684;2024-03-02T17:38:52;2.55;;;1.58;;
24897;SDS011;12957;49.434;8.684;2024-03-02T17:41:17;1.50;;;1.50;;
24897;SDS011;12957;49.434;8.684;2024-03-02T17:43:43;1.38;;;1.27;;
24897;SDS011;12957;49.434;8.684;2024-03-02T17:46:09;1.40;;;1.00;;
24897;SDS011;12957;49.434;8.684;2024-03-02T17:48:35;4.60;;;1.25;;
24897;SDS011;12957;49.434;8.684;2024-03-02T17:51:00;1.20;;;1.20;;
24897;SDS011;12957;49.434;8.684;2024-03-02T17:53:26;1.25;;;1.15;;
24897;SDS011;12957;49.434;8.684;2024-03-02T17:55:51;1.20;;;1.20;;
24897;SDS011;12957;49.434;8.684;2024-03-02T17:58:17;0.93;;;0.93;;
24897;SDS011;12957;49.434;8.684;2024-03-02T18:00:42;1.20;;;1.20;;
24897;SDS011;12957;49.434;8.684;2024-03-02T18:03:08;1.75;;;1.23;;
24897;SDS011;12957;49.434;8.684;2024-03-02T18:05:34;1.38;;;1.27;;
24897;SDS011;12957;49.434;8.684;2024-03-02T18:08:01;1.40;;;1.30;;
24897;SDS011;12957;49.434;8.684;2024-03-02T18:10:27;1.50;;;1.40;;
24897;SDS011;12957;49.434;8.684;2024-03-02T18:12:56;1.33;;;1.23;;
24897;SDS011;12957;49.434;8.684;2024-03-02T18:15:22;2.83;;;1.40;;
24897;SDS011;12957;49.434;8.684;2024-03-02T18:17:48;2.70;;;1.30;;
24897;SDS011;12957;49.434;8.684;2024-03-02T18:20:13;1.30;;;1.30;;
24897;SDS011;12957;49.434;8.684;2024-03-02T18:22:39;2.95;;;1.40;;
24897;SDS011;12957;49.434;8.684;2024-03-02T18:25:05;2.08;;;1.80;;
24897;SDS011;12957;49.434;8.684;2024-03-02T18:27:30;2.00;;;1.90;;
24897;SDS011;12957;49.434;8.684;2024-03-02T18:29:56;3.20;;;2.00;;
24897;SDS011;12957;49.434;8.684;2024-03-02T18:32:21;3.42;;;2.30;;
24897;SDS011;12957;49.434;8.684;2024-03-02T18:34:47;3.15;;;2.25;;
24897;SDS011;12957;49.434;8.684;2024-03-02T18:37:17;3.83;;;2.60;;
24897;SDS011;12957;49.434;8.684;2024-03-02T18:39:47;2.97;;;2.78;;
24897;SDS011;12957;49.434;8.684;2024-03-02T18:42:17;3.35;;;2.70;;
24897;SDS011;12957;49.434;8.684;2024-03-02T18:44:43;3.60;;;3.22;;
24897;SDS011;12957;49.434;8.684;2024-03-02T18:47:08;3.45;;;3.10;;
24897;SDS011;12957;49.434;8.684;2024-03-02T18:49:36;4.15;;;3.47;;
24897;SDS011;12957;49.434;8.684;2024-03-02T18:52:07;4.80;;;3.20;;
24897;SDS011;12957;49.434;8.684;2024-03-02T18:54:33;7.93;;;3.42;;
24897;SDS011;12957;49.434;8.684;2024-03-02T18:57:01;4.85;;;3.53;;
24897;SDS011;12957;49.434;8.684;2024-03-02T18:59:26;4.60;;;4.18;;
24897;SDS011;12957;49.434;8.684;2024-03-02T19:01:52;18.42;;;5.00;;
24897;SDS011;12957;49.434;8.684;2024-03-02T19:04:17;7.53;;;4.35;;
24897;SDS011;12957;49.434;8.684;2024-03-02T19:06:44;5.38;;;4.32;;
24897;SDS011;12957;49.434;8.684;2024-03-02T19:09:10;7.03;;;5.53;;
24897;SDS011;12957;49.434;8.684;2024-03-02T19:11:35;8.18;;;5.45;;
24897;SDS011;12957;49.434;8.684;2024-03-02T19:14:01;7.03;;;5.28;;
24897;SDS011;12957;49.434;8.684;2024-03-02T19:16:26;6.50;;;5.03;;
24897;SDS011;12957;49.434;8.684;2024-03-02T19:18:52;8.07;;;5.25;;
24897;SDS011;12957;49.434;8.684;2024-03-02T19:21:36;5.30;;;4.75;;
24897;SDS011;12957;49.434;8.684;2024-03-02T19:24:02;6.57;;;4.68;;
24897;SDS011;12957;49.434;8.684;2024-03-02T19:26:28;8.73;;;5.55;;
24897;SDS011;12957;49.434;8.684;2024-03-02T19:29:13;6.30;;;5.32;;
24897;SDS011;12957;49.434;8.684;2024-03-02T19:31:39;8.10;;;5.32;;
24897;SDS011;12957;49.434;8.684;2024-03-02T19:34:04;8.60;;;5.85;;
24897;SDS011;12957;49.434;8.684;2024-03-02T19:36:30;7.32;;;5.70;;
24897;SDS011;12957;49.434;8.684;2024-03-02T19:38:56;7.38;;;5.88;;
24897;SDS011;12957;49.434;8.684;2024-03-02T19:41:22;16.17;;;7.28;;
24897;SDS011;12957;49.434;8.684;2024-03-02T19:43:50;9.70;;;6.35;;
24897;SDS011;12957;49.434;8.684;2024-03-02T19:46:16;8.65;;;6.70;;
24897;SDS011;12957;49.434;8.684;2024-03-02T19:48:41;11.30;;;6.85;;
24897;SDS011;12957;49.434;8.684;2024-03-02T19:51:08;11.82;;;7.38;;
24897;SDS011;12957;49.434;8.684;2024-03-02T19:53:37;11.63;;;8.25;;
24897;SDS011;12957;49.434;8.684;2024-03-02T19:56:03;10.85;;;7.90;;
24897;SDS011;12957;49.434;8.684;2024-03-02T19:58:29;18.30;;;8.23;;
24897;SDS011;12957;49.434;8.684;2024-03-02T20:00:54;11.75;;;8.27;;
24897;SDS011;12957;49.434;8.684;2024-03-02T20:03:21;10.13;;;7.78;;
24897;SDS011;12957;49.434;8.684;2024-03-02T20:05:47;15.02;;;7.88;;
24897;SDS011;12957;49.434;8.684;2024-03-02T20:08:13;11.90;;;8.27;;
24897;SDS011;12957;49.434;8.684;2024-03-02T20:10:39;10.98;;;7.78;;
24897;SDS011;12957;49.434;8.684;2024-03-02T20:13:07;11.63;;;8.25;;
24897;SDS011;12957;49.434;8.684;2024-03-02T20:15:33;13.50;;;9.63;;
24897;SDS011;12957;49.434;8.684;2024-03-02T20:17:59;14.45;;;9.23;;
24897;SDS011;12957;49.434;8.684;2024-03-02T20:20:27;14.65;;;8.93;;
24897;SDS011;12957;49.434;8.684;2024-03-02T20:22:53;11.75;;;8.23;;
24897;SDS011;12957;49.434;8.684;2024-03-02T20:25:19;11.95;;;8.75;;
24897;SDS011;12957;49.434;8.684;2024-03-02T20:27:45;13.60;;;9.10;;
24897;SDS011;12957;49.434;8.684;2024-03-02T20:30:11;15.43;;;9.50;;
24897;SDS011;12957;49.434;8.684;2024-03-02T20:32:37;12.45;;;8.45;;
24897;SDS011;12957;49.434;8.684;2024-03-02T20:35:03;16.85;;;9.07;;
24897;SDS011;12957;49.434;8.684;2024-03-02T20:37:29;14.43;;;9.35;;
24897;SDS011;12957;49.434;8.684;2024-03-02T20:39:55;13.15;;;9.23;;
24897;SDS011;12957;49.434;8.684;2024-03-02T20:42:23;15.75;;;9.98;;
24897;SDS011;12957;49.434;8.684;2024-03-02T20:58:21;15.65;;;9.40;;
24897;SDS011;12957;49.434;8.684;2024-03-02T21:00:47;18.42;;;9.70;;
24897;SDS011;12957;49.434;8.684;2024-03-02T21:03:13;14.85;;;9.23;;
24897;SDS011;12957;49.434;8.684;2024-03-02T21:05:38;16.42;;;9.60;;
24897;SDS011;12957;49.434;8.684;2024-03-02T21:08:04;15.88;;;8.98;;
24897;SDS011;12957;49.434;8.684;2024-03-02T21:10:30;14.25;;;9.07;;
24897;SDS011;12957;49.434;8.684;2024-03-02T21:12:55;13.07;;;8.73;;
24897;SDS011;12957;49.434;8.684;2024-03-02T21:15:23;15.98;;;8.90;;
24897;SDS011;12957;49.434;8.684;2024-03-02T21:17:49;15.68;;;9.63;;
24897;SDS011;12957;49.434;8.684;2024-03-02T21:20:14;14.50;;;9.23;;
24897;SDS011;12957;49.434;8.684;2024-03-02T22:12:54;18.45;;;10.63;;
24897;SDS011;12957;49.434;8.684;2024-03-02T22:15:20;17.85;;;10.60;;
24897;SDS011;12957;49.434;8.684;2024-03-02T22:17:46;18.75;;;10.57;;
24897;SDS011;12957;49.434;8.684;2024-03-02T22:20:12;17.27;;;10.40;;
24897;SDS011;12957;49.434;8.684;2024-03-02T22:22:38;18.08;;;10.93;;
24897;SDS011;12957;49.434;8.684;2024-03-02T22:25:05;22.27;;;11.25;;
24897;SDS011;12957;49.434;8.684;2024-03-02T22:27:31;18.35;;;11.13;;
